KCEY/CEY METAR and TAF weather

Enter ICAO airport designator
Station Type Date Time Source
KCEY METAR 2023/09/21 19:35 UTC NOAA

KCEY 211935Z AUTO 17006KT 10SM SCT049 SCT060 29/17 A3013 RMK A01


Station Type Date Time Source
KCEY Decoded METAR 2023/09/21 19:35 UTC NOAA

Station name not available
Sep 21, 2023 - 03:35 PM EDT / 2023.09.21 1935 UTC
Wind: from the S (170 degrees) at 7 MPH (6 KT):0
Visibility: 10 mile(s):0
Sky conditions: partly cloudy
Temperature: 84 F (29 C)
Dew Point: 62 F (17 C)
Relative Humidity: 48%
Pressure (altimeter): 30.13 in. Hg (1020 hPa)
ob: KCEY 211935Z AUTO 17006KT 10SM SCT049 SCT060 29/17 A3013 RMK A01
cycle: 19

Station Type Date Time Source
KCEY TAF UTC NOAA

Error!

Example: see airport list